Time;durP1;ratioP1;P1;durP2;ratioP2;P2;SDS_P1;SDS_P2;PMS_P1;PMS_P2;Temp;Humidity;BMP_temperature;BMP_pressure;BME280_temperature;BME280_humidity;BME280_pressure;Samples;Min_cycle;Max_cycle;Signal;HPM_P1;HPM_P2
2023/10/25 00:00:48;;;;;;;3.60;1.53;;;;;;;;;;5034236;28;20256;-78
2023/10/25 00:03:16;;;;;;;2.50;1.20;;;;;;;;;;5034494;28;20319;-78
2023/10/25 00:05:43;;;;;;;3.20;1.23;;;;;;;;;;5035155;28;20204;-78
2023/10/25 00:08:10;;;;;;;2.73;1.50;;;;;;;;;;5034316;28;20196;-79
2023/10/25 00:10:38;;;;;;;2.50;2.03;;;;;;;;;;5034691;28;20291;-80
2023/10/25 00:13:05;;;;;;;2.77;1.73;;;;;;;;;;5034708;28;20197;-78
2023/10/25 00:15:33;;;;;;;4.47;2.70;;;;;;;;;;5034048;28;20283;-79
2023/10/25 00:18:00;;;;;;;4.23;2.77;;;;;;;;;;5034328;28;20292;-79
2023/10/25 00:20:28;;;;;;;3.40;3.10;;;;;;;;;;5034482;28;20283;-78
2023/10/25 00:22:55;;;;;;;3.47;3.17;;;;;;;;;;5034669;28;20223;-78
2023/10/25 00:25:22;;;;;;;3.93;3.10;;;;;;;;;;5034456;28;20287;-78
2023/10/25 00:27:49;;;;;;;3.80;3.40;;;;;;;;;;5034059;28;20200;-78
2023/10/25 00:30:17;;;;;;;3.77;3.20;;;;;;;;;;5033981;28;20299;-78
2023/10/25 00:32:47;;;;;;;3.60;3.17;;;;;;;;;;5034007;28;20235;-79
2023/10/25 00:35:14;;;;;;;5.70;3.53;;;;;;;;;;5034292;28;20200;-78
2023/10/25 00:37:41;;;;;;;4.30;3.67;;;;;;;;;;5034168;28;20232;-79
2023/10/25 00:40:09;;;;;;;4.17;3.23;;;;;;;;;;5034337;28;20236;-79
2023/10/25 00:42:36;;;;;;;3.57;3.27;;;;;;;;;;5033933;28;20322;-79
2023/10/25 00:45:03;;;;;;;3.90;3.50;;;;;;;;;;5033576;28;20224;-79
2023/10/25 00:47:30;;;;;;;4.30;3.60;;;;;;;;;;5033585;28;20734;-79
2023/10/25 00:49:59;;;;;;;4.17;3.20;;;;;;;;;;5034084;28;20216;-78
2023/10/25 00:52:26;;;;;;;4.70;3.20;;;;;;;;;;5033014;28;20232;-78
2023/10/25 00:54:54;;;;;;;3.63;3.30;;;;;;;;;;5033827;28;20295;-78
2023/10/25 00:57:21;;;;;;;5.63;3.70;;;;;;;;;;5033795;28;20283;-78
2023/10/25 00:59:48;;;;;;;4.50;4.10;;;;;;;;;;5033503;28;20759;-78
2023/10/25 01:02:16;;;;;;;4.13;3.73;;;;;;;;;;5033299;28;20681;-79
2023/10/25 01:04:43;;;;;;;4.03;3.73;;;;;;;;;;5039164;28;20621;-79
2023/10/25 01:07:12;;;;;;;5.13;3.53;;;;;;;;;;5053509;28;20634;-78
2023/10/25 01:09:39;;;;;;;4.03;3.57;;;;;;;;;;5053670;28;20672;-78
2023/10/25 01:12:07;;;;;;;4.27;3.60;;;;;;;;;;5053637;28;20291;-78
2023/10/25 01:14:34;;;;;;;5.27;3.33;;;;;;;;;;5053368;28;20283;-78
2023/10/25 01:17:01;;;;;;;3.70;3.40;;;;;;;;;;5053614;28;20299;-78
2023/10/25 01:19:28;;;;;;;5.00;3.57;;;;;;;;;;5053612;28;20278;-78
2023/10/25 01:21:55;;;;;;;3.83;3.07;;;;;;;;;;5053341;28;20319;-78
2023/10/25 01:24:24;;;;;;;3.67;3.33;;;;;;;;;;5053421;28;20640;-79
2023/10/25 01:26:52;;;;;;;4.60;3.33;;;;;;;;;;5052386;28;20966;-79
2023/10/25 01:29:19;;;;;;;4.43;3.70;;;;;;;;;;5052459;28;20286;-80
2023/10/25 01:31:46;;;;;;;3.97;3.57;;;;;;;;;;5053125;28;20775;-79
2023/10/25 01:34:13;;;;;;;3.53;3.20;;;;;;;;;;5053013;28;20246;-78
2023/10/25 01:36:40;;;;;;;4.03;3.60;;;;;;;;;;5053038;28;20223;-78
2023/10/25 01:39:07;;;;;;;9.60;3.33;;;;;;;;;;5053275;28;20275;-78
2023/10/25 01:41:36;;;;;;;4.30;3.77;;;;;;;;;;5052322;28;20259;-79
2023/10/25 01:44:03;;;;;;;4.60;3.47;;;;;;;;;;5035012;28;20295;-79
2023/10/25 01:46:30;;;;;;;3.77;3.47;;;;;;;;;;5032911;28;20644;-79
2023/10/25 01:48:59;;;;;;;4.10;3.20;;;;;;;;;;5032852;28;20200;-78
2023/10/25 01:51:25;;;;;;;4.07;3.50;;;;;;;;;;5032880;28;20224;-79
2023/10/25 01:53:52;;;;;;;4.47;3.40;;;;;;;;;;5032829;28;20211;-77
2023/10/25 01:56:19;;;;;;;5.53;3.67;;;;;;;;;;5032654;28;20291;-78
2023/10/25 01:58:48;;;;;;;4.10;3.70;;;;;;;;;;5032784;28;20292;-79
2023/10/25 02:01:15;;;;;;;4.90;4.07;;;;;;;;;;5032662;28;20279;-78
2023/10/25 02:03:42;;;;;;;4.50;3.83;;;;;;;;;;5031393;28;20275;-78
2023/10/25 02:06:13;;;;;;;3.70;3.40;;;;;;;;;;5032504;28;20228;-78
2023/10/25 02:08:41;;;;;;;4.17;3.30;;;;;;;;;;5032091;28;20231;-77
2023/10/25 02:11:08;;;;;;;5.37;3.30;;;;;;;;;;5025135;28;20584;-78
2023/10/25 02:13:37;;;;;;;4.17;3.17;;;;;;;;;;5025757;28;20243;-79
2023/10/25 02:16:13;;;;;;;3.90;3.50;;;;;;;;;;5029752;28;20206;-77
2023/10/25 02:18:40;;;;;;;5.03;3.40;;;;;;;;;;5022726;28;20634;-79
2023/10/25 02:21:07;;;;;;;5.70;3.70;;;;;;;;;;5031221;28;20220;-78
2023/10/25 02:23:35;;;;;;;4.30;3.23;;;;;;;;;;5031445;28;20303;-78
2023/10/25 02:26:02;;;;;;;5.57;3.27;;;;;;;;;;5031196;28;20308;-78
2023/10/25 02:28:29;;;;;;;5.53;3.23;;;;;;;;;;5032201;28;20228;-78
2023/10/25 02:30:56;;;;;;;5.73;3.20;;;;;;;;;;5032013;28;20223;-78
2023/10/25 02:33:25;;;;;;;4.33;3.30;;;;;;;;;;5032413;28;20283;-79
2023/10/25 02:35:54;;;;;;;5.33;3.20;;;;;;;;;;5032230;28;20196;-79
2023/10/25 02:38:21;;;;;;;7.23;3.73;;;;;;;;;;5031984;28;20232;-79
2023/10/25 02:40:48;;;;;;;4.23;3.60;;;;;;;;;;5031608;28;20288;-78
2023/10/25 02:43:15;;;;;;;5.37;3.50;;;;;;;;;;5031655;28;20963;-77
2023/10/25 02:45:42;;;;;;;6.60;3.67;;;;;;;;;;5031819;28;20627;-79
2023/10/25 02:48:13;;;;;;;6.80;3.50;;;;;;;;;;5031870;28;20262;-79
2023/10/25 02:50:41;;;;;;;5.53;3.73;;;;;;;;;;5031491;28;20676;-79
2023/10/25 02:53:09;;;;;;;4.80;3.60;;;;;;;;;;5031515;28;20243;-78
2023/10/25 02:55:36;;;;;;;8.17;3.53;;;;;;;;;;5031359;28;20295;-78
2023/10/25 02:58:04;;;;;;;5.03;3.50;;;;;;;;;;5031538;28;20193;-78
2023/10/25 03:00:31;;;;;;;5.20;3.37;;;;;;;;;;5031532;28;20196;-79
2023/10/25 03:02:58;;;;;;;6.77;4.23;;;;;;;;;;5031921;28;20343;-79
2023/10/25 03:05:25;;;;;;;6.27;3.77;;;;;;;;;;5042937;28;20241;-78
2023/10/25 03:07:54;;;;;;;5.37;3.63;;;;;;;;;;5051571;28;20286;-78
2023/10/25 03:10:21;;;;;;;6.57;3.47;;;;;;;;;;5051132;28;20294;-78
2023/10/25 03:12:48;;;;;;;7.60;3.60;;;;;;;;;;5051274;28;20223;-78
2023/10/25 03:15:15;;;;;;;6.07;3.43;;;;;;;;;;5050991;28;20283;-78
2023/10/25 03:17:43;;;;;;;5.73;4.10;;;;;;;;;;5051427;28;20652;-78
2023/10/25 03:20:10;;;;;;;6.97;4.10;;;;;;;;;;5040825;28;20238;-78
2023/10/25 03:22:38;;;;;;;6.70;4.73;;;;;;;;;;5030785;28;20598;-79
2023/10/25 03:25:07;;;;;;;6.37;3.90;;;;;;;;;;5031487;28;20228;-78
2023/10/25 03:27:34;;;;;;;5.07;3.70;;;;;;;;;;5031382;28;20299;-78
2023/10/25 03:30:02;;;;;;;5.00;3.80;;;;;;;;;;5031346;28;20200;-79
2023/10/25 03:32:29;;;;;;;4.80;3.60;;;;;;;;;;5031378;28;20730;-79
2023/10/25 03:34:56;;;;;;;4.47;3.90;;;;;;;;;;5031214;28;20216;-78
2023/10/25 03:37:24;;;;;;;4.50;3.70;;;;;;;;;;5030851;28;20624;-78
2023/10/25 03:39:51;;;;;;;4.83;3.93;;;;;;;;;;5031110;28;20197;-78
2023/10/25 03:42:19;;;;;;;6.33;4.03;;;;;;;;;;5031459;28;20322;-79
2023/10/25 03:44:46;;;;;;;6.83;3.73;;;;;;;;;;5031119;28;20295;-78
2023/10/25 03:47:14;;;;;;;6.20;4.00;;;;;;;;;;5030888;28;20291;-78
2023/10/25 03:49:41;;;;;;;4.63;4.00;;;;;;;;;;5031182;28;20228;-78
2023/10/25 03:52:08;;;;;;;5.83;4.00;;;;;;;;;;5030622;28;20295;-77
2023/10/25 03:54:38;;;;;;;5.80;4.00;;;;;;;;;;5030963;28;20728;-78
2023/10/25 03:57:05;;;;;;;6.13;4.10;;;;;;;;;;5030898;28;20570;-78
2023/10/25 03:59:34;;;;;;;4.60;4.10;;;;;;;;;;5031230;28;20285;-78
2023/10/25 04:02:01;;;;;;;5.90;4.17;;;;;;;;;;5030552;28;20327;-78
2023/10/25 04:04:28;;;;;;;4.63;3.80;;;;;;;;;;5034333;28;20679;-78
2023/10/25 04:06:55;;;;;;;4.80;4.33;;;;;;;;;;5050451;28;20647;-78
2023/10/25 04:09:22;;;;;;;5.40;4.40;;;;;;;;;;5050744;28;20238;-77
2023/10/25 04:11:50;;;;;;;5.07;4.57;;;;;;;;;;5051349;28;20298;-78
2023/10/25 04:14:17;;;;;;;7.07;4.37;;;;;;;;;;5050600;28;20235;-78
2023/10/25 04:16:45;;;;;;;6.20;4.30;;;;;;;;;;5050590;28;20660;-78
2023/10/25 04:19:12;;;;;;;6.50;4.53;;;;;;;;;;5051124;28;20227;-78
2023/10/25 04:21:40;;;;;;;4.80;4.33;;;;;;;;;;5035547;28;20303;-77
2023/10/25 04:24:08;;;;;;;5.23;4.17;;;;;;;;;;5030700;28;20610;-78
2023/10/25 04:26:36;;;;;;;6.33;4.50;;;;;;;;;;5030407;28;20197;-78
2023/10/25 04:29:03;;;;;;;4.63;4.23;;;;;;;;;;5033940;28;20200;-78
2023/10/25 04:31:30;;;;;;;4.10;3.70;;;;;;;;;;5034741;28;20196;-78
2023/10/25 04:34:00;;;;;;;7.93;4.20;;;;;;;;;;5034427;28;20228;-79
2023/10/25 04:36:27;;;;;;;4.43;3.60;;;;;;;;;;5033882;28;20211;-78
2023/10/25 04:38:54;;;;;;;4.87;3.87;;;;;;;;;;5034587;28;20224;-77
2023/10/25 04:41:21;;;;;;;4.60;3.77;;;;;;;;;;5034305;28;20224;-78
2023/10/25 04:43:48;;;;;;;4.50;3.87;;;;;;;;;;5033828;28;20327;-78
2023/10/25 04:46:16;;;;;;;5.17;4.00;;;;;;;;;;5034429;28;20235;-78
2023/10/25 04:48:43;;;;;;;5.40;3.50;;;;;;;;;;5033956;28;20284;-78
2023/10/25 04:51:14;;;;;;;7.13;3.97;;;;;;;;;;5033698;28;20216;-79
2023/10/25 04:53:41;;;;;;;4.33;3.40;;;;;;;;;;5034035;28;20267;-78
2023/10/25 04:56:08;;;;;;;4.50;3.67;;;;;;;;;;5033911;28;20227;-78
2023/10/25 04:58:35;;;;;;;4.57;3.60;;;;;;;;;;5033926;28;20251;-78
2023/10/25 05:01:12;;;;;;;5.97;3.70;;;;;;;;;;5033661;28;20728;-78
2023/10/25 05:03:39;;;;;;;5.70;4.10;;;;;;;;;;5033222;28;20236;-79
2023/10/25 05:06:06;;;;;;;5.40;4.20;;;;;;;;;;5039831;28;20295;-78
2023/10/25 05:08:36;;;;;;;5.80;4.37;;;;;;;;;;5033409;28;20296;-78
2023/10/25 05:11:05;;;;;;;4.80;4.30;;;;;;;;;;5033636;28;20216;-78
2023/10/25 05:13:32;;;;;;;5.13;4.30;;;;;;;;;;5033866;28;20197;-78
2023/10/25 05:15:59;;;;;;;5.60;4.47;;;;;;;;;;5033552;28;20284;-78
2023/10/25 05:18:27;;;;;;;5.57;4.57;;;;;;;;;;5033612;28;20196;-78
2023/10/25 05:20:58;;;;;;;5.47;4.97;;;;;;;;;;5033077;28;20227;-78
2023/10/25 05:23:28;;;;;;;6.10;5.13;;;;;;;;;;5032984;28;20314;-78
2023/10/25 05:25:57;;;;;;;6.73;5.40;;;;;;;;;;5033328;28;20751;-79
2023/10/25 05:28:25;;;;;;;7.67;5.50;;;;;;;;;;5033523;28;20717;-79
2023/10/25 05:30:54;;;;;;;10.60;6.53;;;;;;;;;;5033010;28;20305;-78
2023/10/25 05:33:24;;;;;;;8.27;6.00;;;;;;;;;;5032824;28;20218;-78
2023/10/25 05:35:52;;;;;;;7.37;5.83;;;;;;;;;;5033637;28;20197;-79
2023/10/25 05:38:19;;;;;;;9.60;6.50;;;;;;;;;;5032712;28;20228;-78
2023/10/25 05:40:49;;;;;;;7.60;6.10;;;;;;;;;;5033157;28;20611;-79
2023/10/25 05:43:19;;;;;;;9.13;6.30;;;;;;;;;;5032911;28;20224;-79
2023/10/25 05:45:47;;;;;;;7.77;6.00;;;;;;;;;;5033036;28;20742;-79
2023/10/25 05:48:15;;;;;;;9.50;5.97;;;;;;;;;;5032332;28;20204;-79
2023/10/25 05:50:44;;;;;;;7.97;5.97;;;;;;;;;;5032660;28;20196;-80
2023/10/25 05:53:12;;;;;;;10.23;6.63;;;;;;;;;;5033115;28;20207;-79
2023/10/25 05:55:41;;;;;;;10.40;7.03;;;;;;;;;;5032833;28;20208;-79
2023/10/25 05:58:09;;;;;;;10.83;7.37;;;;;;;;;;5032329;28;20250;-79
2023/10/25 06:00:39;;;;;;;13.77;7.60;;;;;;;;;;5032436;28;20219;-79
2023/10/25 06:03:07;;;;;;;12.20;7.50;;;;;;;;;;5034497;28;20242;-79
2023/10/25 06:05:34;;;;;;;12.50;8.23;;;;;;;;;;5047487;28;20235;-81
2023/10/25 06:08:03;;;;;;;14.43;8.13;;;;;;;;;;5038766;28;20195;-80
2023/10/25 06:10:30;;;;;;;12.93;8.00;;;;;;;;;;5032355;28;20239;-80
2023/10/25 06:12:58;;;;;;;12.83;8.07;;;;;;;;;;5048872;28;20283;-80
2023/10/25 06:15:25;;;;;;;14.13;8.00;;;;;;;;;;5039185;28;20303;-80
2023/10/25 06:17:53;;;;;;;12.07;7.83;;;;;;;;;;5032413;28;20220;-79
2023/10/25 06:20:21;;;;;;;13.40;7.50;;;;;;;;;;5039109;28;20671;-80
2023/10/25 06:22:48;;;;;;;10.73;6.73;;;;;;;;;;5033954;28;20761;-80
2023/10/25 06:25:15;;;;;;;12.03;6.67;;;;;;;;;;5031966;28;20741;-79
2023/10/25 06:27:42;;;;;;;10.03;7.47;;;;;;;;;;5032257;28;20279;-78
2023/10/25 06:30:10;;;;;;;12.23;7.33;;;;;;;;;;5032414;28;20196;-77
2023/10/25 06:32:37;;;;;;;10.73;7.37;;;;;;;;;;5031977;28;20203;-78
2023/10/25 06:35:06;;;;;;;12.50;7.47;;;;;;;;;;5031982;28;20283;-77
2023/10/25 06:37:33;;;;;;;9.67;7.00;;;;;;;;;;5040244;28;20310;-79
2023/10/25 06:40:01;;;;;;;13.40;7.83;;;;;;;;;;5047079;28;20620;-78
2023/10/25 06:42:28;;;;;;;9.63;7.10;;;;;;;;;;5031967;28;20291;-79
2023/10/25 06:44:56;;;;;;;11.20;7.37;;;;;;;;;;5032124;28;20628;-78
2023/10/25 06:47:25;;;;;;;10.63;6.80;;;;;;;;;;5031077;28;20287;-78
2023/10/25 06:49:53;;;;;;;11.20;6.17;;;;;;;;;;5031260;28;20201;-78
2023/10/25 06:52:22;;;;;;;9.23;6.30;;;;;;;;;;5031854;28;20288;-79
2023/10/25 06:54:50;;;;;;;9.27;6.17;;;;;;;;;;5031722;28;20224;-79
2023/10/25 06:57:17;;;;;;;10.93;6.40;;;;;;;;;;5031671;28;20197;-78
2023/10/25 06:59:45;;;;;;;11.80;6.03;;;;;;;;;;5031660;28;20196;-77
2023/10/25 07:02:21;;;;;;;9.07;6.10;;;;;;;;;;5031402;28;20232;-78
2023/10/25 07:04:51;;;;;;;6.80;5.47;;;;;;;;;;5037528;28;20314;-77
2023/10/25 07:07:22;;;;;;;8.10;6.00;;;;;;;;;;5051024;28;20707;-78
2023/10/25 07:09:51;;;;;;;10.17;6.83;;;;;;;;;;5051231;28;20206;-78
2023/10/25 07:12:19;;;;;;;7.13;5.40;;;;;;;;;;5051344;28;20204;-78
2023/10/25 07:14:46;;;;;;;8.73;5.40;;;;;;;;;;5041552;28;20196;-79
2023/10/25 07:17:14;;;;;;;8.20;5.13;;;;;;;;;;5031302;28;20287;-79
2023/10/25 07:19:43;;;;;;;8.93;5.50;;;;;;;;;;5031635;28;20279;-80
2023/10/25 07:22:10;;;;;;;7.77;4.90;;;;;;;;;;5031146;28;20204;-78
2023/10/25 07:24:37;;;;;;;8.73;4.80;;;;;;;;;;5030893;28;20323;-79
2023/10/25 07:27:06;;;;;;;4.63;4.10;;;;;;;;;;5031306;28;20291;-79
2023/10/25 07:29:36;;;;;;;7.37;5.03;;;;;;;;;;5030727;28;20660;-78
2023/10/25 07:32:03;;;;;;;10.47;5.50;;;;;;;;;;5031135;28;20200;-79
2023/10/25 07:34:31;;;;;;;7.87;5.90;;;;;;;;;;5031544;28;20286;-78
2023/10/25 07:36:58;;;;;;;8.17;5.37;;;;;;;;;;5030907;28;20753;-77
2023/10/25 07:39:25;;;;;;;9.90;5.40;;;;;;;;;;5031150;28;20207;-79
2023/10/25 07:41:53;;;;;;;8.97;4.80;;;;;;;;;;5031351;28;20219;-80
2023/10/25 07:44:21;;;;;;;10.47;5.10;;;;;;;;;;5030575;28;20271;-80
2023/10/25 07:46:48;;;;;;;8.43;5.00;;;;;;;;;;5030951;28;20287;-79
2023/10/25 07:49:15;;;;;;;7.80;4.77;;;;;;;;;;5031363;28;20698;-80
2023/10/25 07:51:43;;;;;;;8.83;5.00;;;;;;;;;;5030618;28;20308;-80
2023/10/25 07:54:10;;;;;;;9.60;4.87;;;;;;;;;;5031232;28;20293;-79
2023/10/25 07:56:37;;;;;;;10.20;5.10;;;;;;;;;;5031006;28;20207;-80
2023/10/25 07:59:04;;;;;;;7.80;4.10;;;;;;;;;;5030688;28;20193;-80
2023/10/25 08:01:33;;;;;;;7.47;4.00;;;;;;;;;;5030799;28;20228;-80
2023/10/25 08:04:00;;;;;;;7.80;4.37;;;;;;;;;;5033730;28;20236;-80
2023/10/25 08:06:27;;;;;;;8.33;4.57;;;;;;;;;;5015212;28;20201;-79
2023/10/25 08:08:54;;;;;;;7.40;4.23;;;;;;;;;;5015051;28;20235;-79
2023/10/25 08:11:21;;;;;;;7.20;4.30;;;;;;;;;;5025994;28;20228;-78
2023/10/25 08:13:49;;;;;;;9.13;4.07;;;;;;;;;;5052996;28;20231;-79
2023/10/25 08:16:16;;;;;;;6.43;3.60;;;;;;;;;;5034531;28;20614;-80
2023/10/25 08:18:44;;;;;;;4.17;3.63;;;;;;;;;;5034553;28;20291;-80
2023/10/25 08:21:13;;;;;;;4.27;3.13;;;;;;;;;;5034457;28;20648;-78
2023/10/25 08:23:40;;;;;;;6.63;2.87;;;;;;;;;;5034212;28;20323;-79
2023/10/25 08:26:07;;;;;;;5.80;2.50;;;;;;;;;;5034202;28;20274;-78
2023/10/25 08:28:35;;;;;;;3.03;2.20;;;;;;;;;;5034392;28;20232;-79
2023/10/25 08:31:10;;;;;;;1.70;1.60;;;;;;;;;;5034295;28;20288;-78
2023/10/25 08:33:38;;;;;;;2.90;1.70;;;;;;;;;;5034478;28;20235;-79
2023/10/25 08:36:07;;;;;;;2.83;1.60;;;;;;;;;;5034229;28;20295;-79
2023/10/25 08:38:34;;;;;;;2.73;1.57;;;;;;;;;;5034682;28;20287;-80
2023/10/25 08:41:04;;;;;;;2.90;1.60;;;;;;;;;;5033873;28;20235;-79
2023/10/25 08:43:32;;;;;;;2.37;1.40;;;;;;;;;;5033532;28;20254;-79
2023/10/25 08:45:59;;;;;;;1.70;1.43;;;;;;;;;;5034126;28;20255;-79
2023/10/25 08:48:26;;;;;;;1.30;1.20;;;;;;;;;;5034178;28;20283;-78
2023/10/25 08:50:54;;;;;;;2.20;0.80;;;;;;;;;;5034308;28;20209;-79
2023/10/25 08:53:27;;;;;;;1.13;0.50;;;;;;;;;;5034121;28;20254;-79
2023/10/25 08:55:54;;;;;;;0.52;0.30;;;;;;;;;;5033855;28;20676;-80
2023/10/25 08:58:23;;;;;;;0.60;0.30;;;;;;;;;;5033631;28;20291;-79
2023/10/25 09:00:51;;;;;;;0.30;0.30;;;;;;;;;;5033870;28;20726;-80
2023/10/25 09:03:38;;;;;;;0.52;0.40;;;;;;;;;;5033656;28;20243;-78
2023/10/25 09:06:06;;;;;;;0.80;0.68;;;;;;;;;;5033688;28;20657;-79
2023/10/25 09:08:35;;;;;;;0.85;0.70;;;;;;;;;;5033910;28;20220;-79
2023/10/25 09:11:03;;;;;;;1.55;0.63;;;;;;;;;;5036183;28;20282;-79
2023/10/25 09:13:31;;;;;;;0.60;0.55;;;;;;;;;;5053231;28;20290;-78
2023/10/25 09:16:05;;;;;;;0.70;0.60;;;;;;;;;;5033524;28;20287;-79
2023/10/25 09:18:33;;;;;;;1.05;0.60;;;;;;;;;;5033805;28;20778;-78
2023/10/25 09:21:00;;;;;;;1.30;0.88;;;;;;;;;;5033344;28;20284;-78
2023/10/25 09:23:28;;;;;;;4.35;0.88;;;;;;;;;;5033246;28;20605;-79
2023/10/25 09:25:58;;;;;;;3.63;0.77;;;;;;;;;;5032945;28;20549;-79
2023/10/25 09:28:28;;;;;;;3.08;0.85;;;;;;;;;;5033318;28;20232;-79
2023/10/25 09:30:55;;;;;;;1.02;0.57;;;;;;;;;;5033118;28;20232;-78
2023/10/25 09:33:22;;;;;;;1.37;0.60;;;;;;;;;;5033177;28;20359;-79
2023/10/25 09:35:50;;;;;;;7.72;1.33;;;;;;;;;;5033299;28;20224;-78
2023/10/25 09:38:17;;;;;;;3.22;0.95;;;;;;;;;;5033210;28;20607;-79
2023/10/25 09:40:44;;;;;;;0.90;0.40;;;;;;;;;;5032831;28;20235;-79
2023/10/25 09:43:15;;;;;;;1.65;0.73;;;;;;;;;;5033192;28;20224;-79
2023/10/25 09:45:44;;;;;;;2.85;0.60;;;;;;;;;;5033180;28;20236;-79
2023/10/25 09:48:12;;;;;;;0.77;0.30;;;;;;;;;;5032815;28;20200;-79
2023/10/25 09:50:42;;;;;;;0.90;0.40;;;;;;;;;;5032967;28;20206;-79
2023/10/25 09:53:12;;;;;;;0.30;0.30;;;;;;;;;;5032934;28;20266;-79
2023/10/25 09:55:42;;;;;;;0.90;0.45;;;;;;;;;;5032635;28;20235;-79
2023/10/25 09:58:11;;;;;;;0.90;0.47;;;;;;;;;;5032748;28;20255;-79
2023/10/25 10:00:41;;;;;;;1.05;0.57;;;;;;;;;;5032452;28;20211;-79
2023/10/25 10:03:12;;;;;;;0.65;0.50;;;;;;;;;;5032658;28;20237;-79
2023/10/25 10:05:43;;;;;;;0.80;0.52;;;;;;;;;;5032304;28;20720;-79
2023/10/25 10:08:12;;;;;;;1.77;0.68;;;;;;;;;;5032683;28;20209;-78
2023/10/25 10:10:41;;;;;;;1.33;0.80;;;;;;;;;;5032348;28;20744;-79
2023/10/25 10:13:15;;;;;;;1.35;1.00;;;;;;;;;;5012759;28;20251;-79
2023/10/25 10:16:04;;;;;;;1.33;0.90;;;;;;;;;;5029619;28;20203;-80
2023/10/25 10:18:35;;;;;;;1.85;0.98;;;;;;;;;;5032348;28;20207;-79
2023/10/25 10:21:03;;;;;;;1.42;0.70;;;;;;;;;;5032400;28;20292;-80
2023/10/25 10:23:38;;;;;;;1.90;0.90;;;;;;;;;;5031403;28;20284;-80
2023/10/25 10:26:06;;;;;;;1.25;0.90;;;;;;;;;;5031202;28;20204;-80
2023/10/25 10:28:43;;;;;;;1.77;0.75;;;;;;;;;;5032296;28;20200;-79
2023/10/25 10:31:12;;;;;;;1.10;0.80;;;;;;;;;;5032028;28;20236;-80
2023/10/25 10:33:44;;;;;;;1.27;0.90;;;;;;;;;;5032063;28;20232;-80
2023/10/25 10:36:11;;;;;;;5.10;1.13;;;;;;;;;;5032150;28;20568;-79
2023/10/25 10:38:57;;;;;;;0.90;0.80;;;;;;;;;;5031694;28;20207;-79
2023/10/25 10:41:28;;;;;;;2.22;0.73;;;;;;;;;;5032211;28;20279;-79
2023/10/25 10:43:56;;;;;;;0.93;0.77;;;;;;;;;;5031485;28;20196;-79
2023/10/25 10:46:25;;;;;;;0.95;0.80;;;;;;;;;;5031938;28;20687;-79
2023/10/25 10:48:54;;;;;;;1.75;0.80;;;;;;;;;;5031682;28;20239;-80
2023/10/25 10:51:21;;;;;;;1.88;0.98;;;;;;;;;;5031484;28;21228;-79
2023/10/25 10:53:49;;;;;;;0.98;0.60;;;;;;;;;;5031490;28;20740;-80
2023/10/25 10:56:16;;;;;;;1.10;0.63;;;;;;;;;;5031741;28;20230;-79
2023/10/25 10:58:43;;;;;;;1.67;1.10;;;;;;;;;;5031935;28;20287;-79
2023/10/25 11:01:11;;;;;;;1.58;0.70;;;;;;;;;;5031427;28;20287;-80
2023/10/25 11:03:39;;;;;;;1.35;0.90;;;;;;;;;;5031334;28;20267;-80
2023/10/25 11:06:07;;;;;;;1.98;0.90;;;;;;;;;;5048378;28;20235;-80
2023/10/25 11:08:35;;;;;;;2.83;1.20;;;;;;;;;;5050936;28;20633;-80
2023/10/25 11:11:02;;;;;;;2.00;1.00;;;;;;;;;;5051052;28;20202;-80
2023/10/25 11:13:29;;;;;;;1.95;1.05;;;;;;;;;;5051350;28;20290;-80
2023/10/25 11:16:02;;;;;;;1.95;0.88;;;;;;;;;;5032266;28;20199;-79
2023/10/25 11:18:29;;;;;;;2.67;1.00;;;;;;;;;;5031507;28;20298;-78
2023/10/25 11:20:58;;;;;;;1.52;0.60;;;;;;;;;;5031307;28;20228;-78
2023/10/25 11:23:25;;;;;;;2.13;0.70;;;;;;;;;;5030783;28;20748;-79
2023/10/25 11:25:53;;;;;;;1.20;0.80;;;;;;;;;;5030530;28;20803;-79
2023/10/25 11:28:20;;;;;;;3.00;0.70;;;;;;;;;;5031133;28;20206;-79
2023/10/25 11:30:48;;;;;;;1.63;0.77;;;;;;;;;;5031369;28;20291;-80
2023/10/25 11:33:15;;;;;;;1.98;0.45;;;;;;;;;;5031432;28;20270;-80
2023/10/25 11:35:43;;;;;;;1.23;0.68;;;;;;;;;;5031023;28;20292;-80
2023/10/25 11:38:12;;;;;;;4.70;0.90;;;;;;;;;;5035479;28;20224;-80
2023/10/25 11:40:42;;;;;;;2.55;0.70;;;;;;;;;;5035192;28;20227;-80
2023/10/25 11:43:10;;;;;;;2.65;0.70;;;;;;;;;;5035344;28;20581;-80
2023/10/25 11:45:38;;;;;;;2.30;0.70;;;;;;;;;;5035099;28;20327;-80
2023/10/25 11:48:05;;;;;;;3.25;0.60;;;;;;;;;;5035632;28;20196;-79
2023/10/25 11:50:32;;;;;;;2.75;1.30;;;;;;;;;;5034347;28;20228;-80
2023/10/25 11:53:00;;;;;;;1.27;0.77;;;;;;;;;;5035222;28;20287;-79
2023/10/25 11:55:29;;;;;;;1.27;0.70;;;;;;;;;;5034931;28;20224;-80
2023/10/25 11:57:56;;;;;;;1.83;1.20;;;;;;;;;;5034995;28;20685;-80
2023/10/25 12:00:24;;;;;;;3.08;1.52;;;;;;;;;;5035053;28;20299;-81
2023/10/25 12:02:51;;;;;;;2.58;1.10;;;;;;;;;;5034600;28;20342;-80
2023/10/25 12:05:18;;;;;;;2.25;1.27;;;;;;;;;;5044400;28;20326;-80
2023/10/25 12:07:48;;;;;;;2.97;1.27;;;;;;;;;;5054811;28;20287;-80
2023/10/25 12:10:16;;;;;;;2.72;1.13;;;;;;;;;;5055080;28;20200;-79
2023/10/25 12:12:44;;;;;;;2.50;1.00;;;;;;;;;;5054507;28;20199;-80
2023/10/25 12:15:12;;;;;;;3.25;1.00;;;;;;;;;;5054516;28;20282;-80
2023/10/25 12:17:39;;;;;;;1.42;1.00;;;;;;;;;;5054343;28;20694;-79
2023/10/25 12:20:07;;;;;;;2.38;0.68;;;;;;;;;;5054254;28;20234;-79
2023/10/25 12:22:34;;;;;;;2.50;0.70;;;;;;;;;;5046572;28;20303;-79
2023/10/25 12:25:02;;;;;;;2.90;1.20;;;;;;;;;;5034385;28;20315;-79
2023/10/25 12:27:29;;;;;;;1.10;0.70;;;;;;;;;;5034231;28;20665;-80
2023/10/25 12:29:58;;;;;;;2.80;0.82;;;;;;;;;;5034338;28;20306;-80
2023/10/25 12:32:25;;;;;;;1.88;0.70;;;;;;;;;;5033972;28;20279;-79
2023/10/25 12:34:52;;;;;;;1.95;1.02;;;;;;;;;;5033220;28;20330;-80
2023/10/25 12:37:19;;;;;;;2.72;0.93;;;;;;;;;;5033419;28;20236;-79
2023/10/25 12:39:47;;;;;;;2.03;0.70;;;;;;;;;;5033735;28;20196;-79
2023/10/25 12:42:14;;;;;;;1.92;0.90;;;;;;;;;;5033916;28;20287;-80
2023/10/25 12:44:41;;;;;;;1.52;0.60;;;;;;;;;;5034419;28;20294;-79
2023/10/25 12:47:09;;;;;;;1.67;0.70;;;;;;;;;;5034130;28;20227;-79
2023/10/25 12:49:37;;;;;;;2.97;0.68;;;;;;;;;;5032551;28;20279;-80
2023/10/25 12:52:05;;;;;;;1.83;0.70;;;;;;;;;;5034256;28;20220;-80
2023/10/25 12:54:32;;;;;;;1.77;0.90;;;;;;;;;;5034206;28;20201;-79
2023/10/25 12:56:59;;;;;;;1.35;0.65;;;;;;;;;;5033984;28;20279;-79
2023/10/25 12:59:26;;;;;;;1.30;0.80;;;;;;;;;;5033786;28;20731;-79
2023/10/25 13:01:53;;;;;;;1.27;0.60;;;;;;;;;;5033536;28;20199;-79
2023/10/25 13:04:22;;;;;;;1.17;0.70;;;;;;;;;;5035597;28;20695;-79
2023/10/25 13:06:49;;;;;;;2.67;0.73;;;;;;;;;;5053286;28;20223;-80
2023/10/25 13:09:17;;;;;;;1.60;0.63;;;;;;;;;;5053192;28;20295;-78
2023/10/25 13:11:44;;;;;;;3.70;0.85;;;;;;;;;;5053668;28;20675;-79
2023/10/25 13:14:12;;;;;;;2.45;0.70;;;;;;;;;;5053593;28;20220;-79
2023/10/25 13:16:39;;;;;;;3.88;0.80;;;;;;;;;;5053420;28;20207;-78
2023/10/25 13:19:06;;;;;;;1.98;0.80;;;;;;;;;;5053045;28;20239;-79
2023/10/25 13:21:35;;;;;;;1.33;0.70;;;;;;;;;;5053089;28;20291;-79
2023/10/25 13:24:02;;;;;;;3.40;1.08;;;;;;;;;;5033524;28;20656;-78
2023/10/25 13:26:29;;;;;;;1.88;0.90;;;;;;;;;;5033258;28;20262;-79
2023/10/25 13:28:59;;;;;;;2.30;0.60;;;;;;;;;;5033433;28;20297;-79
2023/10/25 13:31:26;;;;;;;1.88;0.75;;;;;;;;;;5033323;28;20203;-79
2023/10/25 13:33:54;;;;;;;2.28;0.75;;;;;;;;;;5032651;28;20295;-79
2023/10/25 13:36:21;;;;;;;1.92;0.70;;;;;;;;;;5033644;28;20728;-79
2023/10/25 13:38:49;;;;;;;3.50;0.93;;;;;;;;;;5033229;28;20628;-78
2023/10/25 13:41:17;;;;;;;2.92;1.10;;;;;;;;;;5033210;28;20196;-79
2023/10/25 13:43:45;;;;;;;2.13;0.70;;;;;;;;;;5032891;28;20205;-79
2023/10/25 13:46:12;;;;;;;2.20;0.70;;;;;;;;;;5032977;28;20319;-79
2023/10/25 13:48:41;;;;;;;3.40;0.70;;;;;;;;;;5032928;28;20228;-78
2023/10/25 13:51:08;;;;;;;1.40;0.60;;;;;;;;;;5032864;28;20295;-79
2023/10/25 13:53:35;;;;;;;3.72;1.10;;;;;;;;;;5032877;28;20315;-79
2023/10/25 13:56:04;;;;;;;1.60;0.57;;;;;;;;;;5033096;28;20201;-78
2023/10/25 13:58:31;;;;;;;1.67;0.70;;;;;;;;;;5032576;28;20228;-78
2023/10/25 14:01:02;;;;;;;1.77;0.60;;;;;;;;;;5032306;28;20378;-79
2023/10/25 14:03:30;;;;;;;2.15;0.63;;;;;;;;;;5032538;28;20275;-79
2023/10/25 14:06:03;;;;;;;2.28;0.50;;;;;;;;;;5048373;28;20231;-78
2023/10/25 14:08:30;;;;;;;3.60;0.73;;;;;;;;;;5052752;28;20196;-78
2023/10/25 14:10:57;;;;;;;1.73;0.60;;;;;;;;;;5052782;28;20199;-79
2023/10/25 14:13:25;;;;;;;2.65;0.60;;;;;;;;;;5052133;28;20315;-79
2023/10/25 14:15:53;;;;;;;2.28;0.70;;;;;;;;;;5051699;28;20764;-78
2023/10/25 14:18:20;;;;;;;2.58;0.85;;;;;;;;;;5052282;28;20283;-78
2023/10/25 14:20:47;;;;;;;1.48;0.50;;;;;;;;;;5052428;28;20234;-78
2023/10/25 14:23:14;;;;;;;2.28;0.70;;;;;;;;;;5038796;28;20242;-79
2023/10/25 14:25:42;;;;;;;0.80;0.52;;;;;;;;;;5032162;28;20712;-79
2023/10/25 14:28:09;;;;;;;2.28;1.10;;;;;;;;;;5032269;28;20223;-78
2023/10/25 14:30:42;;;;;;;1.92;1.42;;;;;;;;;;5031944;28;20611;-79
2023/10/25 14:33:09;;;;;;;4.35;1.27;;;;;;;;;;5032342;28;20220;-78
2023/10/25 14:35:37;;;;;;;3.67;1.48;;;;;;;;;;5032284;28;20581;-78
2023/10/25 14:38:04;;;;;;;3.92;1.30;;;;;;;;;;5032099;28;20291;-79
2023/10/25 14:40:31;;;;;;;4.40;2.60;;;;;;;;;;5031961;28;20291;-78
2023/10/25 14:42:59;;;;;;;4.68;3.42;;;;;;;;;;5031986;28;20287;-78
2023/10/25 14:45:26;;;;;;;5.35;3.40;;;;;;;;;;5031472;28;20577;-78
2023/10/25 14:47:54;;;;;;;5.75;2.90;;;;;;;;;;5031978;28;20196;-79